Time;durP1;ratioP1;P1;durP2;ratioP2;P2;SDS_P1;SDS_P2;PMS_P1;PMS_P2;Temp;Humidity;BMP_temperature;BMP_pressure;BME280_temperature;BME280_humidity;BME280_pressure;Samples;Min_cycle;Max_cycle;Signal;HPM_P1;HPM_P2
2023/01/03 00:00:20;;;;;;;35.03;24.08;;;;;;;;;;2097157;28;20048;-47
2023/01/03 00:01:22;;;;;;;37.83;23.50;;;;;;;;;;2097295;28;20049;-46
2023/01/03 00:02:23;;;;;;;36.88;25.15;;;;;;;;;;2097248;28;20497;-46
2023/01/03 00:03:26;;;;;;;37.33;23.83;;;;;;;;;;2097309;28;20076;-47
2023/01/03 00:04:27;;;;;;;36.80;22.85;;;;;;;;;;2097553;28;20056;-46
2023/01/03 00:05:28;;;;;;;35.85;24.20;;;;;;;;;;2097204;28;20060;-47
2023/01/03 00:06:30;;;;;;;36.70;23.25;;;;;;;;;;2097063;28;20044;-46
2023/01/03 00:07:34;;;;;;;;;;;;;;;;;;2097863;28;20053;-46
2023/01/03 00:08:35;;;;;;;37.03;25.40;;;;;;;;;;2097265;28;20023;-47
2023/01/03 00:09:36;;;;;;;35.37;24.67;;;;;;;;;;2097118;28;20135;-47
2023/01/03 00:10:37;;;;;;;36.83;24.92;;;;;;;;;;2097246;28;20520;-47
2023/01/03 00:12:58;;;;;;;38.45;25.63;;;;;;;;;;2097184;28;20049;-48
2023/01/03 00:13:59;;;;;;;37.20;25.15;;;;;;;;;;2097240;28;20056;-46
2023/01/03 00:15:01;;;;;;;40.88;26.15;;;;;;;;;;2097214;28;20449;-47
2023/01/03 00:16:02;;;;;;;39.83;25.70;;;;;;;;;;2097270;28;20048;-49
2023/01/03 00:17:04;;;;;;;41.13;27.50;;;;;;;;;;2097067;28;20040;-46
2023/01/03 00:18:05;;;;;;;37.95;26.20;;;;;;;;;;2097182;28;20050;-46
2023/01/03 00:19:07;;;;;;;39.00;25.97;;;;;;;;;;2097209;28;20079;-48
2023/01/03 00:20:09;;;;;;;38.45;26.55;;;;;;;;;;2097138;28;20306;-46
2023/01/03 00:21:10;;;;;;;;;;;;;;;;;;2097561;28;20383;-47
2023/01/03 00:22:12;;;;;;;39.53;25.02;;;;;;;;;;2097143;28;19975;-46
2023/01/03 00:23:12;;;;;;;;;;;;;;;;;;2097583;28;20040;-46
2023/01/03 00:24:14;;;;;;;38.88;25.05;;;;;;;;;;2097116;28;19972;-48
2023/01/03 00:25:15;;;;;;;36.85;24.88;;;;;;;;;;2090996;28;20049;-47
2023/01/03 00:26:16;;;;;;;34.58;23.67;;;;;;;;;;2088799;28;20406;-47
2023/01/03 00:27:17;;;;;;;38.17;24.00;;;;;;;;;;2088740;28;20049;-47
2023/01/03 00:28:18;;;;;;;35.05;23.30;;;;;;;;;;2088907;28;20538;-48
2023/01/03 00:29:19;;;;;;;39.47;25.93;;;;;;;;;;2088928;28;20072;-47
2023/01/03 00:30:20;;;;;;;37.08;24.80;;;;;;;;;;2089264;28;20122;-48
2023/01/03 00:31:21;;;;;;;37.23;24.53;;;;;;;;;;2090224;28;20383;-46
2023/01/03 00:32:22;;;;;;;37.65;24.98;;;;;;;;;;2090180;28;20766;-46
2023/01/03 00:33:24;;;;;;;35.42;23.95;;;;;;;;;;2090194;28;20049;-47
2023/01/03 00:34:25;;;;;;;39.35;25.13;;;;;;;;;;2090301;28;20049;-48
2023/01/03 00:35:27;;;;;;;;;;;;;;;;;;2090844;28;20045;-48
2023/01/03 00:36:27;;;;;;;42.63;27.00;;;;;;;;;;2090128;28;19998;-46
2023/01/03 00:37:29;;;;;;;39.80;26.87;;;;;;;;;;2090168;28;20391;-48
2023/01/03 00:38:30;;;;;;;42.45;26.00;;;;;;;;;;2090303;28;20048;-47
2023/01/03 00:39:31;;;;;;;41.80;26.57;;;;;;;;;;2090025;28;20114;-46
2023/01/03 00:40:32;;;;;;;39.92;26.92;;;;;;;;;;2097760;28;20049;-47
2023/01/03 00:41:33;;;;;;;43.47;28.67;;;;;;;;;;2098502;28;20048;-46
2023/01/03 00:43:27;;;;;;;44.47;27.52;;;;;;;;;;2098191;28;20047;-47
2023/01/03 00:43:55;;;;;;;44.80;29.00;;;;;;;;;;2098506;28;20045;-46
2023/01/03 00:44:57;;;;;;;43.42;28.35;;;;;;;;;;2098397;28;20057;-48
2023/01/03 00:45:58;;;;;;;46.47;28.65;;;;;;;;;;2098494;28;20401;-47
2023/01/03 00:46:59;;;;;;;47.23;30.40;;;;;;;;;;2098551;28;20053;-49
2023/01/03 00:48:00;;;;;;;47.20;29.15;;;;;;;;;;2098247;28;20040;-48
2023/01/03 00:49:01;;;;;;;40.53;26.83;;;;;;;;;;2098555;28;20076;-47
2023/01/03 00:50:02;;;;;;;46.58;28.60;;;;;;;;;;2098464;28;20048;-46
2023/01/03 00:51:05;;;;;;;42.67;27.77;;;;;;;;;;2098488;28;20086;-48
2023/01/03 00:52:06;;;;;;;46.63;29.20;;;;;;;;;;2098458;28;20044;-47
2023/01/03 00:53:07;;;;;;;43.28;27.88;;;;;;;;;;2098449;28;20104;-47
2023/01/03 00:54:09;;;;;;;39.93;27.40;;;;;;;;;;2098590;28;20537;-46
2023/01/03 00:55:10;;;;;;;41.28;27.48;;;;;;;;;;2098341;28;20048;-48
2023/01/03 00:56:12;;;;;;;40.50;27.27;;;;;;;;;;2098646;28;20049;-47
2023/01/03 00:57:13;;;;;;;40.38;26.95;;;;;;;;;;2098414;28;20062;-47
2023/01/03 00:58:14;;;;;;;43.93;27.70;;;;;;;;;;2098321;28;20071;-47
2023/01/03 00:59:16;;;;;;;41.25;28.10;;;;;;;;;;2098376;28;20052;-47
2023/01/03 01:00:17;;;;;;;42.67;27.67;;;;;;;;;;2098409;28;20059;-47
2023/01/03 01:01:19;;;;;;;43.60;25.25;;;;;;;;;;2098375;28;20117;-47
2023/01/03 01:02:20;;;;;;;41.15;26.88;;;;;;;;;;2098468;28;20051;-47
2023/01/03 01:03:21;;;;;;;42.38;25.52;;;;;;;;;;2098539;28;20119;-47
2023/01/03 01:04:24;;;;;;;41.10;26.67;;;;;;;;;;2098242;28;20097;-51
2023/01/03 01:05:27;;;;;;;37.92;26.02;;;;;;;;;;2098399;28;20052;-46
2023/01/03 01:06:29;;;;;;;39.65;25.98;;;;;;;;;;2098493;28;20044;-47
2023/01/03 01:07:29;;;;;;;39.13;25.35;;;;;;;;;;2098307;28;20094;-47
2023/01/03 01:08:31;;;;;;;37.70;25.80;;;;;;;;;;2098261;28;20044;-47
2023/01/03 01:09:33;;;;;;;39.90;27.00;;;;;;;;;;2098366;28;20040;-47
2023/01/03 01:10:33;;;;;;;40.47;25.17;;;;;;;;;;2098244;28;20048;-47
2023/01/03 01:11:35;;;;;;;41.43;25.90;;;;;;;;;;2098397;28;20149;-46
2023/01/03 01:12:35;;;;;;;39.60;27.40;;;;;;;;;;2098308;28;20048;-48
2023/01/03 01:13:37;;;;;;;45.30;27.92;;;;;;;;;;2098203;28;20060;-48
2023/01/03 01:14:38;;;;;;;40.38;26.25;;;;;;;;;;2098096;28;20493;-47
2023/01/03 01:15:39;;;;;;;41.50;26.90;;;;;;;;;;2098652;28;20390;-46
2023/01/03 01:16:40;;;;;;;42.28;26.77;;;;;;;;;;2098331;28;20098;-45
2023/01/03 01:17:41;;;;;;;37.75;27.13;;;;;;;;;;2098276;28;20056;-45
2023/01/03 01:18:43;;;;;;;40.75;26.67;;;;;;;;;;2098450;28;20048;-45
2023/01/03 01:19:44;;;;;;;42.03;26.65;;;;;;;;;;2098215;28;20045;-45
2023/01/03 01:20:45;;;;;;;41.07;27.87;;;;;;;;;;2098553;28;20078;-48
2023/01/03 01:21:46;;;;;;;42.45;27.50;;;;;;;;;;2098198;28;20477;-47
2023/01/03 01:22:48;;;;;;;43.73;28.13;;;;;;;;;;2098115;28;20059;-48
2023/01/03 01:23:49;;;;;;;42.47;28.20;;;;;;;;;;2098301;28;20053;-47
2023/01/03 01:24:50;;;;;;;43.40;29.30;;;;;;;;;;2095322;28;20409;-47
2023/01/03 01:25:51;;;;;;;44.50;29.08;;;;;;;;;;2089807;28;20055;-46
2023/01/03 01:26:52;;;;;;;43.45;28.67;;;;;;;;;;2089814;28;20076;-46
2023/01/03 01:27:53;;;;;;;48.40;29.50;;;;;;;;;;2090040;28;20057;-46
2023/01/03 01:28:54;;;;;;;41.65;28.85;;;;;;;;;;2089805;28;20418;-46
2023/01/03 01:29:55;;;;;;;50.67;29.33;;;;;;;;;;2089805;28;20060;-46
2023/01/03 01:30:57;;;;;;;49.70;31.20;;;;;;;;;;2089868;28;20148;-46
2023/01/03 01:31:58;;;;;;;48.55;29.70;;;;;;;;;;2089848;28;20052;-46
2023/01/03 01:32:59;;;;;;;46.83;28.80;;;;;;;;;;2089828;28;20493;-46
2023/01/03 01:34:00;;;;;;;47.63;30.30;;;;;;;;;;2089808;28;20045;-46
2023/01/03 01:35:01;;;;;;;50.80;30.95;;;;;;;;;;2089611;28;20052;-46
2023/01/03 01:36:07;;;;;;;50.92;31.08;;;;;;;;;;2091235;28;20123;-46
2023/01/03 01:37:08;;;;;;;48.53;30.80;;;;;;;;;;2098047;28;20124;-47
2023/01/03 01:38:09;;;;;;;46.55;30.75;;;;;;;;;;2097995;28;20481;-47
2023/01/03 01:39:11;;;;;;;45.90;30.53;;;;;;;;;;2098000;28;20044;-47
2023/01/03 01:40:12;;;;;;;44.20;29.33;;;;;;;;;;2097963;28;20501;-47
2023/01/03 01:41:14;;;;;;;43.00;29.63;;;;;;;;;;2098115;28;20040;-46
2023/01/03 01:44:54;;;;;;;43.38;28.80;;;;;;;;;;2097957;28;20419;-47
2023/01/03 01:45:55;;;;;;;42.78;28.27;;;;;;;;;;2098139;28;20056;-46
2023/01/03 01:46:56;;;;;;;42.33;28.60;;;;;;;;;;2098145;28;20044;-47
2023/01/03 01:47:59;;;;;;;47.27;29.60;;;;;;;;;;2098244;28;20045;-47
2023/01/03 01:49:01;;;;;;;42.30;29.08;;;;;;;;;;2098149;28;20047;-47
2023/01/03 01:50:05;;;;;;;46.42;30.25;;;;;;;;;;2098081;28;20045;-50
2023/01/03 01:51:08;;;;;;;45.42;30.52;;;;;;;;;;2097917;28;20490;-46
2023/01/03 01:52:10;;;;;;;46.42;28.48;;;;;;;;;;2097953;28;20044;-45
2023/01/03 01:53:11;;;;;;;42.75;27.55;;;;;;;;;;2097839;28;20413;-45
2023/01/03 01:54:13;;;;;;;48.78;30.08;;;;;;;;;;2097835;28;20069;-45
2023/01/03 01:55:16;;;;;;;44.22;29.17;;;;;;;;;;2097920;28;20044;-45
2023/01/03 01:56:20;;;;;;;44.05;27.48;;;;;;;;;;2097951;28;20049;-46
2023/01/03 01:57:22;;;;;;;42.88;28.45;;;;;;;;;;2097877;28;20493;-45
2023/01/03 01:58:26;;;;;;;44.03;29.00;;;;;;;;;;2098118;28;20239;-47
2023/01/03 01:59:27;;;;;;;48.63;30.30;;;;;;;;;;2098106;28;20059;-47
2023/01/03 02:00:29;;;;;;;45.17;29.42;;;;;;;;;;2097896;28;20397;-47
2023/01/03 02:01:30;;;;;;;44.35;29.48;;;;;;;;;;2097969;28;20088;-49
2023/01/03 02:02:31;;;;;;;43.47;29.27;;;;;;;;;;2097964;28;20040;-46
2023/01/03 02:03:32;;;;;;;46.15;29.10;;;;;;;;;;2098032;28;20129;-47
2023/01/03 02:04:35;;;;;;;40.47;27.80;;;;;;;;;;2097845;28;20044;-47
2023/01/03 02:05:36;;;;;;;44.42;28.70;;;;;;;;;;2097910;28;20044;-46
2023/01/03 02:06:39;;;;;;;41.78;29.30;;;;;;;;;;2097999;28;20044;-46
2023/01/03 02:07:39;;;;;;;;;;;;;;;;;;2098302;28;20056;-47
2023/01/03 02:08:40;;;;;;;45.60;28.02;;;;;;;;;;2097751;28;19971;-47
2023/01/03 02:09:41;;;;;;;42.45;28.73;;;;;;;;;;2097971;28;20056;-47
2023/01/03 02:10:53;;;;;;;42.15;28.13;;;;;;;;;;2097840;28;20148;-48
2023/01/03 02:13:19;;;;;;;46.85;27.95;;;;;;;;;;2097639;28;20041;-46
2023/01/03 02:14:28;;;;;;;41.78;27.55;;;;;;;;;;2097728;28;20041;-47
2023/01/03 02:15:34;;;;;;;44.03;27.50;;;;;;;;;;2097819;28;20421;-45
2023/01/03 02:16:47;;;;;;;45.50;29.60;;;;;;;;;;2097814;28;20458;-44
2023/01/03 02:17:53;;;;;;;42.92;27.88;;;;;;;;;;2098022;28;20052;-45
2023/01/03 02:19:00;;;;;;;42.80;28.40;;;;;;;;;;2097949;28;20063;-45
2023/01/03 02:20:06;;;;;;;44.60;28.75;;;;;;;;;;2097854;28;20044;-46
2023/01/03 02:21:27;;;;;;;47.65;29.42;;;;;;;;;;2097859;28;20044;-46
2023/01/03 02:22:56;;;;;;;40.33;27.67;;;;;;;;;;2092660;28;20648;-47
2023/01/03 02:24:11;;;;;;;43.10;28.23;;;;;;;;;;2098018;28;20059;-47
2023/01/03 02:25:35;;;;;;;41.85;28.02;;;;;;;;;;2091911;28;20063;-46
2023/01/03 02:26:44;;;;;;;40.05;27.48;;;;;;;;;;2089629;28;20045;-49
2023/01/03 02:28:01;;;;;;;42.75;27.77;;;;;;;;;;2089468;28;20068;-48
2023/01/03 02:29:14;;;;;;;43.00;27.10;;;;;;;;;;2089662;28;20045;-47
2023/01/03 02:30:27;;;;;;;45.30;26.92;;;;;;;;;;2089423;28;20482;-46
2023/01/03 02:31:29;;;;;;;42.13;27.63;;;;;;;;;;2089584;28;20049;-46
2023/01/03 02:32:36;;;;;;;41.92;26.55;;;;;;;;;;2092622;28;20047;-47
2023/01/03 02:33:39;;;;;;;40.22;26.92;;;;;;;;;;2097615;28;20048;-47
2023/01/03 02:34:46;;;;;;;41.92;27.50;;;;;;;;;;2097691;28;20098;-47
2023/01/03 02:35:51;;;;;;;43.78;28.10;;;;;;;;;;2097696;28;20060;-47
2023/01/03 02:36:57;;;;;;;39.67;26.63;;;;;;;;;;2097833;28;20052;-48
2023/01/03 02:38:06;;;;;;;42.28;27.23;;;;;;;;;;2097817;28;20090;-47
2023/01/03 02:39:10;;;;;;;45.10;28.90;;;;;;;;;;2097614;28;20052;-47
2023/01/03 02:40:14;;;;;;;42.63;28.25;;;;;;;;;;2097526;28;20179;-47
2023/01/03 02:41:21;;;;;;;46.95;27.98;;;;;;;;;;2097924;28;20045;-47
2023/01/03 02:43:47;;;;;;;46.40;27.30;;;;;;;;;;2097737;28;20044;-48
2023/01/03 02:44:53;;;;;;;42.92;27.17;;;;;;;;;;2097542;28;20041;-46
2023/01/03 02:46:00;;;;;;;47.00;29.58;;;;;;;;;;2097818;28;20055;-48
2023/01/03 02:47:03;;;;;;;41.92;27.42;;;;;;;;;;2097594;28;20119;-48
2023/01/03 02:48:08;;;;;;;42.03;26.58;;;;;;;;;;2097710;28;20086;-47
2023/01/03 02:49:12;;;;;;;43.08;28.40;;;;;;;;;;2097673;28;20040;-48
2023/01/03 02:50:13;;;;;;;40.22;25.58;;;;;;;;;;2097813;28;20044;-45
2023/01/03 02:51:16;;;;;;;43.03;26.58;;;;;;;;;;2097762;28;20101;-45
2023/01/03 02:52:19;;;;;;;43.90;27.58;;;;;;;;;;2097739;28;20102;-45
2023/01/03 02:53:22;;;;;;;42.30;27.40;;;;;;;;;;2097190;28;20075;-45
2023/01/03 02:54:26;;;;;;;41.33;27.30;;;;;;;;;;2096800;28;20228;-45
2023/01/03 02:55:29;;;;;;;42.67;26.55;;;;;;;;;;2097790;28;20055;-45
2023/01/03 02:56:33;;;;;;;38.22;25.75;;;;;;;;;;2097575;28;20055;-44
2023/01/03 02:57:36;;;;;;;37.20;24.80;;;;;;;;;;2097624;28;20057;-45
2023/01/03 02:58:38;;;;;;;40.58;26.02;;;;;;;;;;2097548;28;20053;-44
2023/01/03 02:59:41;;;;;;;43.80;27.10;;;;;;;;;;2097596;28;20142;-44
2023/01/03 03:00:44;;;;;;;40.22;27.60;;;;;;;;;;2097532;28;20044;-45
2023/01/03 03:01:49;;;;;;;45.65;27.63;;;;;;;;;;2097804;28;20098;-44
2023/01/03 03:02:53;;;;;;;37.55;25.30;;;;;;;;;;2097419;28;20048;-44
2023/01/03 03:03:55;;;;;;;42.40;27.13;;;;;;;;;;2097635;28;20045;-45
2023/01/03 03:04:57;;;;;;;39.50;26.02;;;;;;;;;;2097460;28;20082;-44
2023/01/03 03:06:03;;;;;;;42.03;26.42;;;;;;;;;;2097556;28;20040;-45
2023/01/03 03:07:07;;;;;;;36.78;26.42;;;;;;;;;;2097638;28;20070;-46
2023/01/03 03:08:08;;;;;;;41.88;27.58;;;;;;;;;;2097459;28;20040;-45
2023/01/03 03:09:09;;;;;;;45.53;27.90;;;;;;;;;;2097372;28;20056;-45
2023/01/03 03:14:16;;;;;;;44.05;28.90;;;;;;;;;;2097393;28;20090;-46
2023/01/03 03:15:21;;;;;;;46.22;28.27;;;;;;;;;;2097378;28;20509;-45
2023/01/03 03:17:41;;;;;;;43.38;28.65;;;;;;;;;;2097250;28;20076;-44
2023/01/03 03:18:47;;;;;;;42.25;29.13;;;;;;;;;;2097320;28;20048;-45
2023/01/03 03:25:14;;;;;;;41.45;27.23;;;;;;;;;;2091627;28;20252;-45
2023/01/03 03:26:17;;;;;;;41.53;27.75;;;;;;;;;;2089015;28;20132;-44
2023/01/03 03:28:43;;;;;;;43.80;27.73;;;;;;;;;;2091554;28;20045;-45
2023/01/03 03:29:44;;;;;;;42.05;28.15;;;;;;;;;;2097401;28;20044;-47
2023/01/03 03:30:46;;;;;;;44.50;27.70;;;;;;;;;;2097674;28;20048;-47
2023/01/03 03:31:48;;;;;;;41.95;27.48;;;;;;;;;;2097322;28;20463;-48
2023/01/03 03:32:52;;;;;;;44.33;29.25;;;;;;;;;;2097292;28;20059;-47
2023/01/03 03:33:56;;;;;;;45.42;28.33;;;;;;;;;;2097161;28;20055;-47
2023/01/03 03:34:58;;;;;;;39.15;26.88;;;;;;;;;;2097238;28;20398;-47
2023/01/03 03:36:03;;;;;;;40.33;27.73;;;;;;;;;;2097147;28;20521;-46
2023/01/03 03:37:08;;;;;;;39.20;27.33;;;;;;;;;;2097192;28;20086;-47
2023/01/03 03:38:10;;;;;;;38.40;25.25;;;;;;;;;;2097667;28;20048;-46
2023/01/03 03:45:00;;;;;;;43.85;27.85;;;;;;;;;;2096690;28;20049;-45
2023/01/03 03:46:04;;;;;;;46.72;30.30;;;;;;;;;;2097240;28;20044;-45
2023/01/03 03:47:12;;;;;;;41.83;29.23;;;;;;;;;;2097435;28;20044;-45
2023/01/03 03:48:16;;;;;;;47.70;29.98;;;;;;;;;;2097342;28;20439;-45
2023/01/03 03:49:38;;;;;;;47.35;29.90;;;;;;;;;;2097143;28;20506;-46
2023/01/03 03:50:42;;;;;;;43.05;28.92;;;;;;;;;;2097261;28;20056;-47
2023/01/03 03:51:45;;;;;;;44.88;30.25;;;;;;;;;;2097435;28;20060;-47
2023/01/03 03:52:47;;;;;;;48.63;31.17;;;;;;;;;;2097237;28;20051;-46
2023/01/03 03:53:49;;;;;;;51.97;31.05;;;;;;;;;;2097215;28;20529;-45
2023/01/03 03:54:50;;;;;;;;;;;;;;;;;;2097594;28;20090;-45
2023/01/03 03:55:53;;;;;;;48.92;30.73;;;;;;;;;;2097332;28;19921;-45
2023/01/03 03:56:58;;;;;;;48.97;31.02;;;;;;;;;;2097317;28;20056;-47
2023/01/03 03:58:01;;;;;;;45.65;30.77;;;;;;;;;;2097340;28;20051;-45
2023/01/03 03:59:04;;;;;;;47.15;28.67;;;;;;;;;;2097230;28;20048;-44
2023/01/03 04:00:08;;;;;;;50.60;31.83;;;;;;;;;;2097685;28;20114;-44
2023/01/03 04:01:11;;;;;;;45.78;29.77;;;;;;;;;;2097292;28;20048;-45
2023/01/03 04:02:13;;;;;;;48.78;30.83;;;;;;;;;;2097277;28;20098;-44
2023/01/03 04:03:15;;;;;;;48.75;31.45;;;;;;;;;;2096681;28;20090;-45
2023/01/03 04:04:16;;;;;;;;;;;;;;;;;;2096853;28;20186;-45
2023/01/03 04:05:19;;;;;;;48.08;31.83;;;;;;;;;;2097775;28;19920;-45
2023/01/03 04:06:22;;;;;;;49.42;30.23;;;;;;;;;;2098594;28;20482;-44
2023/01/03 04:07:23;;;;;;;55.30;30.98;;;;;;;;;;2098749;28;20064;-45
2023/01/03 04:08:24;;;;;;;45.43;29.47;;;;;;;;;;2098754;28;20056;-46
2023/01/03 04:09:25;;;;;;;44.78;30.05;;;;;;;;;;2098745;28;20293;-45
2023/01/03 04:10:26;;;;;;;45.47;30.55;;;;;;;;;;2098693;28;20044;-45
2023/01/03 04:11:33;;;;;;;43.88;28.50;;;;;;;;;;2098866;28;20044;-44
2023/01/03 04:12:34;;;;;;;48.00;29.90;;;;;;;;;;2098725;28;20055;-46
2023/01/03 04:13:36;;;;;;;49.53;29.60;;;;;;;;;;2098615;28;20301;-47
2023/01/03 04:14:38;;;;;;;46.83;31.35;;;;;;;;;;2098587;28;20182;-44
2023/01/03 04:15:38;;;;;;;53.72;30.48;;;;;;;;;;2098623;28;20053;-45
2023/01/03 04:16:40;;;;;;;47.80;28.83;;;;;;;;;;2098667;28;20048;-45
2023/01/03 04:17:41;;;;;;;44.45;28.48;;;;;;;;;;2098618;28;20053;-45
2023/01/03 04:18:43;;;;;;;42.00;27.83;;;;;;;;;;2098780;28;20063;-45
2023/01/03 04:19:43;;;;;;;40.40;26.90;;;;;;;;;;2098541;28;20056;-45
2023/01/03 04:20:45;;;;;;;46.22;30.30;;;;;;;;;;2098886;28;20052;-45
2023/01/03 04:21:45;;;;;;;46.50;30.70;;;;;;;;;;2098661;28;20052;-45
2023/01/03 04:22:47;;;;;;;45.65;29.08;;;;;;;;;;2098697;28;20049;-45
2023/01/03 04:23:48;;;;;;;41.88;28.58;;;;;;;;;;2098721;28;20044;-45
2023/01/03 04:24:49;;;;;;;47.37;29.07;;;;;;;;;;2097577;28;20517;-46
2023/01/03 04:25:50;;;;;;;47.55;29.52;;;;;;;;;;2098591;28;20052;-46
2023/01/03 04:26:51;;;;;;;47.28;29.98;;;;;;;;;;2098524;28;20040;-46
2023/01/03 04:27:52;;;;;;;54.03;31.45;;;;;;;;;;2098633;28;20432;-46
2023/01/03 04:28:53;;;;;;;44.42;30.10;;;;;;;;;;2098786;28;20116;-44
2023/01/03 04:29:54;;;;;;;47.92;31.15;;;;;;;;;;2098506;28;20052;-45
2023/01/03 04:30:55;;;;;;;50.47;29.98;;;;;;;;;;2098548;28;20052;-45
2023/01/03 04:31:56;;;;;;;51.58;30.30;;;;;;;;;;2098677;28;20130;-44
2023/01/03 04:32:57;;;;;;;51.13;30.83;;;;;;;;;;2098370;28;20045;-44
2023/01/03 04:33:59;;;;;;;50.17;30.90;;;;;;;;;;2098743;28;20052;-44
2023/01/03 04:35:00;;;;;;;50.08;31.55;;;;;;;;;;2098479;28;20048;-46
2023/01/03 04:36:01;;;;;;;50.57;32.53;;;;;;;;;;2098721;28;20059;-44
2023/01/03 04:37:02;;;;;;;53.40;33.10;;;;;;;;;;2098554;28;20044;-45
2023/01/03 04:38:03;;;;;;;49.38;32.00;;;;;;;;;;2098389;28;20040;-44
2023/01/03 04:39:05;;;;;;;51.17;32.38;;;;;;;;;;2098596;28;20121;-46
2023/01/03 04:40:06;;;;;;;52.25;32.22;;;;;;;;;;2098649;28;20051;-48
2023/01/03 04:41:08;;;;;;;49.50;32.63;;;;;;;;;;2098669;28;20052;-49
2023/01/03 04:44:43;;;;;;;50.13;32.30;;;;;;;;;;2098376;28;20052;-47
2023/01/03 04:45:46;;;;;;;52.23;32.03;;;;;;;;;;2098681;28;20049;-43
2023/01/03 04:46:47;;;;;;;51.10;31.52;;;;;;;;;;2098371;28;20052;-45
2023/01/03 04:47:53;;;;;;;48.28;32.78;;;;;;;;;;2098513;28;20550;-47
2023/01/03 04:48:55;;;;;;;53.42;32.65;;;;;;;;;;2098454;28;20045;-46
2023/01/03 04:49:56;;;;;;;51.30;32.27;;;;;;;;;;2098330;28;20615;-46
2023/01/03 04:50:58;;;;;;;52.33;33.35;;;;;;;;;;2098649;28;20277;-47
2023/01/03 04:51:59;;;;;;;50.90;32.50;;;;;;;;;;2098770;28;20044;-47
2023/01/03 04:53:00;;;;;;;51.45;33.33;;;;;;;;;;2098412;28;20124;-46
2023/01/03 04:54:02;;;;;;;54.43;31.27;;;;;;;;;;2098484;28;20473;-45
2023/01/03 04:55:03;;;;;;;;;;;;;;;;;;2098934;28;20290;-46
2023/01/03 04:56:04;;;;;;;50.55;31.92;;;;;;;;;;2098321;28;20341;-46
2023/01/03 04:57:05;;;;;;;52.70;32.72;;;;;;;;;;2098363;28;20485;-45
2023/01/03 04:58:06;;;;;;;52.15;32.17;;;;;;;;;;2098460;28;20257;-46
2023/01/03 04:59:07;;;;;;;52.03;31.85;;;;;;;;;;2098726;28;20048;-47
2023/01/03 05:00:09;;;;;;;52.25;33.25;;;;;;;;;;2098377;28;20135;-49
2023/01/03 05:01:10;;;;;;;56.50;33.67;;;;;;;;;;2098478;28;20053;-45
2023/01/03 05:02:11;;;;;;;59.55;34.78;;;;;;;;;;2098417;28;20052;-47
2023/01/03 05:03:13;;;;;;;53.55;34.20;;;;;;;;;;2098435;28;20056;-47
2023/01/03 05:04:14;;;;;;;51.92;32.13;;;;;;;;;;2098208;28;20497;-47
2023/01/03 05:05:15;;;;;;;52.80;32.60;;;;;;;;;;2098341;28;20482;-48
2023/01/03 05:06:17;;;;;;;53.25;32.65;;;;;;;;;;2098454;28;20048;-49
2023/01/03 05:07:18;;;;;;;50.08;31.83;;;;;;;;;;2098311;28;20440;-46
2023/01/03 05:08:19;;;;;;;51.00;33.30;;;;;;;;;;2098446;28;20056;-46
2023/01/03 05:09:20;;;;;;;54.75;34.10;;;;;;;;;;2098221;28;20056;-47
2023/01/03 05:10:21;;;;;;;55.72;34.45;;;;;;;;;;2098452;28;20440;-47
2023/01/03 05:11:22;;;;;;;55.60;32.75;;;;;;;;;;2098301;28;20127;-47
2023/01/03 05:12:23;;;;;;;56.55;33.83;;;;;;;;;;2098392;28;20051;-47
2023/01/03 05:13:24;;;;;;;50.40;32.83;;;;;;;;;;2098233;28;20056;-46
2023/01/03 05:14:25;;;;;;;50.40;32.17;;;;;;;;;;2098234;28;20070;-47
2023/01/03 05:15:27;;;;;;;51.90;32.23;;;;;;;;;;2098493;28;20080;-51
2023/01/03 05:16:28;;;;;;;52.30;32.95;;;;;;;;;;2098264;28;20056;-44
2023/01/03 05:17:30;;;;;;;50.92;32.08;;;;;;;;;;2097520;28;20470;-45
2023/01/03 05:18:30;;;;;;;50.35;31.88;;;;;;;;;;2098226;28;20089;-46
2023/01/03 05:19:32;;;;;;;51.47;33.10;;;;;;;;;;2098232;28;20053;-45
2023/01/03 05:25:53;;;;;;;49.92;31.23;;;;;;;;;;2098231;28;20079;-46
2023/01/03 05:26:55;;;;;;;53.30;32.10;;;;;;;;;;2098163;28;20049;-46
2023/01/03 05:27:56;;;;;;;47.08;30.77;;;;;;;;;;2098365;28;20044;-47
2023/01/03 05:28:57;;;;;;;47.38;30.52;;;;;;;;;;2097987;28;20040;-46
2023/01/03 05:29:59;;;;;;;51.70;31.10;;;;;;;;;;2098120;28;20094;-46
2023/01/03 05:31:00;;;;;;;47.60;32.33;;;;;;;;;;2098251;28;20094;-46
2023/01/03 05:32:01;;;;;;;48.63;30.53;;;;;;;;;;2098102;28;20447;-48
2023/01/03 05:33:02;;;;;;;46.55;31.20;;;;;;;;;;2098381;28;20287;-46
2023/01/03 05:34:04;;;;;;;49.47;30.20;;;;;;;;;;2098117;28;20403;-45
2023/01/03 05:35:05;;;;;;;45.30;29.85;;;;;;;;;;2097956;28;20547;-47
2023/01/03 05:36:08;;;;;;;48.67;32.15;;;;;;;;;;2098243;28;20040;-46
2023/01/03 05:37:09;;;;;;;48.50;30.50;;;;;;;;;;2098320;28;20397;-46
2023/01/03 05:38:10;;;;;;;53.40;30.87;;;;;;;;;;2098122;28;20048;-45
2023/01/03 05:39:11;;;;;;;42.10;28.45;;;;;;;;;;2098170;28;20288;-44
2023/01/03 05:40:12;;;;;;;46.80;30.53;;;;;;;;;;2098274;28;20040;-45
2023/01/03 05:41:13;;;;;;;48.97;30.33;;;;;;;;;;2098302;28;20048;-46
2023/01/03 05:42:14;;;;;;;48.53;29.83;;;;;;;;;;2098156;28;20478;-46
2023/01/03 05:43:15;;;;;;;45.10;28.60;;;;;;;;;;2098316;28;20041;-46
2023/01/03 05:44:16;;;;;;;46.17;29.25;;;;;;;;;;2098119;28;20083;-45
2023/01/03 05:45:17;;;;;;;40.15;26.95;;;;;;;;;;2098107;28;20045;-45
2023/01/03 05:46:19;;;;;;;41.33;27.20;;;;;;;;;;2098093;28;20386;-45
2023/01/03 05:47:20;;;;;;;43.08;28.27;;;;;;;;;;2098255;28;20048;-45
2023/01/03 05:48:21;;;;;;;44.80;29.30;;;;;;;;;;2098117;28;20048;-45
2023/01/03 05:49:22;;;;;;;46.33;28.75;;;;;;;;;;2098071;28;20055;-46
2023/01/03 05:50:23;;;;;;;50.03;29.52;;;;;;;;;;2097916;28;20398;-45
2023/01/03 05:51:25;;;;;;;42.95;27.40;;;;;;;;;;2098245;28;20147;-46
2023/01/03 05:52:26;;;;;;;45.67;28.10;;;;;;;;;;2098100;28;20537;-45
2023/01/03 05:53:27;;;;;;;45.23;28.17;;;;;;;;;;2098312;28;20083;-49
2023/01/03 05:54:28;;;;;;;44.83;28.83;;;;;;;;;;2098267;28;20379;-45
2023/01/03 05:55:29;;;;;;;41.78;28.05;;;;;;;;;;2098084;28;20098;-46
2023/01/03 05:56:30;;;;;;;45.80;27.85;;;;;;;;;;2097916;28;20496;-44
2023/01/03 05:57:31;;;;;;;38.73;26.90;;;;;;;;;;2098070;28;20049;-47
2023/01/03 05:58:36;;;;;;;42.30;27.67;;;;;;;;;;2097902;28;20286;-45
2023/01/03 05:59:37;;;;;;;41.03;27.27;;;;;;;;;;2098040;28;20126;-45
2023/01/03 06:00:38;;;;;;;40.20;25.70;;;;;;;;;;2098082;28;20097;-46
2023/01/03 06:01:39;;;;;;;39.85;25.40;;;;;;;;;;2098151;28;20106;-45
2023/01/03 06:02:40;;;;;;;36.88;26.10;;;;;;;;;;2097889;28;20070;-45
2023/01/03 06:03:42;;;;;;;41.50;25.87;;;;;;;;;;2098121;28;20044;-45
2023/01/03 06:04:43;;;;;;;;;;;;;;;;;;2098400;28;20293;-45
2023/01/03 06:05:44;;;;;;;33.40;24.42;;;;;;;;;;2097905;28;20369;-45
2023/01/03 06:06:51;;;;;;;37.72;25.58;;;;;;;;;;2097966;28;20501;-45
2023/01/03 06:07:52;;;;;;;36.30;24.60;;;;;;;;;;2098076;28;20049;-45
2023/01/03 06:08:53;;;;;;;39.47;24.50;;;;;;;;;;2098191;28;20048;-45
2023/01/03 06:09:54;;;;;;;32.40;21.97;;;;;;;;;;2098017;28;20078;-44
2023/01/03 06:10:55;;;;;;;35.67;23.38;;;;;;;;;;2098027;28;20102;-46
2023/01/03 06:11:57;;;;;;;33.85;21.67;;;;;;;;;;2097897;28;20044;-45
2023/01/03 06:12:58;;;;;;;35.45;23.45;;;;;;;;;;2098246;28;20048;-45
2023/01/03 06:13:59;;;;;;;33.40;21.80;;;;;;;;;;2097796;28;20048;-46
2023/01/03 06:15:00;;;;;;;34.72;23.48;;;;;;;;;;2097683;28;20051;-48
2023/01/03 06:18:44;;;;;;;30.25;21.50;;;;;;;;;;2097775;28;20055;-48
2023/01/03 06:19:45;;;;;;;33.80;21.88;;;;;;;;;;2097964;28;20072;-47
2023/01/03 06:20:46;;;;;;;31.25;21.60;;;;;;;;;;2097919;28;20133;-46
2023/01/03 06:21:47;;;;;;;33.08;21.13;;;;;;;;;;2097917;28;20045;-46
2023/01/03 06:22:49;;;;;;;33.80;21.20;;;;;;;;;;2097973;28;20087;-47
2023/01/03 06:23:50;;;;;;;30.98;20.23;;;;;;;;;;2098324;28;20044;-47
2023/01/03 06:24:51;;;;;;;32.70;21.48;;;;;;;;;;2097204;28;20055;-47
2023/01/03 06:25:52;;;;;;;33.60;21.57;;;;;;;;;;2097837;28;20517;-47
2023/01/03 06:26:53;;;;;;;32.10;21.52;;;;;;;;;;2097735;28;20051;-47
2023/01/03 06:27:54;;;;;;;30.53;21.33;;;;;;;;;;2097938;28;20054;-46
2023/01/03 06:28:55;;;;;;;31.70;20.50;;;;;;;;;;2097904;28;20052;-46
2023/01/03 06:29:57;;;;;;;32.40;21.27;;;;;;;;;;2097827;28;20505;-45
2023/01/03 06:30:57;;;;;;;29.08;21.00;;;;;;;;;;2097880;28;20037;-46
2023/01/03 06:32:00;;;;;;;29.13;19.42;;;;;;;;;;2097902;28;20052;-46
2023/01/03 06:33:10;;;;;;;30.65;19.73;;;;;;;;;;2097669;28;20304;-46
2023/01/03 06:34:11;;;;;;;29.35;20.25;;;;;;;;;;2097681;28;20402;-47
2023/01/03 06:35:12;;;;;;;27.60;19.63;;;;;;;;;;2097900;28;20056;-46
2023/01/03 06:36:15;;;;;;;28.25;20.23;;;;;;;;;;2097770;28;20387;-47
2023/01/03 06:37:17;;;;;;;31.42;19.85;;;;;;;;;;2097721;28;20044;-46
2023/01/03 06:38:18;;;;;;;27.77;19.70;;;;;;;;;;2097798;28;20052;-47
2023/01/03 06:39:20;;;;;;;29.00;20.58;;;;;;;;;;2097749;28;20052;-47
2023/01/03 06:40:21;;;;;;;27.67;20.52;;;;;;;;;;2097827;28;20485;-47